Time,TemperatureF,DewpointF,PressureIn,WindDirection,WindDirectionDegrees,WindSpeedMPH,WindSpeedGustMPH,Humidity,HourlyPrecipIn,Conditions,Clouds,dailyrainin,SoftwareType,DateUTC
2013-05-17 00:01:00,59.3,42.6,29.88,WSW,239,0.0,0.0,54,0.00,-RA,OVC,0.00,WeatherDisplay:10.37,2013-05-17 06:01:00,
2013-05-17 00:06:00,59.1,42.9,29.88,WSW,239,0.0,0.0,55,0.00,-RA,OVC,0.00,WeatherDisplay:10.37,2013-05-17 06:06:00,
2013-05-17 00:11:00,58.9,43.2,29.88,WSW,239,0.0,0.0,56,0.00,-RA,OVC,0.00,WeatherDisplay:10.37,2013-05-17 06:11:00,
2013-05-17 00:16:00,58.6,43.9,29.88,WSW,239,0.0,0.0,58,0.00,-RA,OVC,0.00,WeatherDisplay:10.37,2013-05-17 06:16:00,
2013-05-17 00:21:00,58.3,43.6,29.88,WSW,239,0.0,0.0,58,0.00,-RA,OVC,0.00,WeatherDisplay:10.37,2013-05-17 06:21:00,
2013-05-17 00:26:00,58.2,43.5,29.88,WSW,239,0.0,0.0,58,0.00,-RA,OVC,0.00,WeatherDisplay:10.37,2013-05-17 06:26:00,
2013-05-17 00:31:00,58.1,42.9,29.88,WSW,239,0.0,0.0,57,0.00,-RA,OVC,0.00,WeatherDisplay:10.37,2013-05-17 06:31:00,
2013-05-17 00:36:00,57.9,43.2,29.88,WSW,239,0.0,0.0,58,0.00,-RA,OVC,0.00,WeatherDisplay:10.37,2013-05-17 06:36:00,
2013-05-17 00:41:00,57.7,43.9,29.88,WSW,239,0.0,0.0,60,0.00,-RA,OVC,0.00,WeatherDisplay:10.37,2013-05-17 06:41:00,
2013-05-17 00:46:00,57.4,43.6,29.88,WSW,239,1.1,0.0,60,0.00,-RA,OVC,0.00,WeatherDisplay:10.37,2013-05-17 06:46:00,
2013-05-17 00:51:00,57.4,44.5,29.88,WSW,239,0.0,0.0,62,0.00,-RA,OVC,0.00,WeatherDisplay:10.37,2013-05-17 06:51:00,
2013-05-17 00:56:00,57.2,44.3,29.88,WSW,239,1.1,1.1,62,0.00,-RA,OVC,0.00,WeatherDisplay:10.37,2013-05-17 06:56:00,
2013-05-17 01:01:00,56.9,44.0,29.88,WSW,239,1.1,0.0,62,0.00,-RA,OVC,0.00,WeatherDisplay:10.37,2013-05-17 07:01:00,
2013-05-17 01:06:00,56.8,43.5,29.88,WSW,239,3.5,3.5,61,0.00,-RA,OVC,0.00,WeatherDisplay:10.37,2013-05-17 07:06:00,
2013-05-17 01:11:00,57.0,42.4,29.88,WSW,239,3.5,3.5,58,0.00,-RA,OVC,0.00,WeatherDisplay:10.37,2013-05-17 07:11:00,
2013-05-17 01:16:00,57.3,42.6,29.88,WSW,239,0.0,0.0,58,0.00,-RA,OVC,0.00,WeatherDisplay:10.37,2013-05-17 07:16:00,
2013-05-17 01:21:00,57.5,41.9,29.88,WSW,239,0.0,0.0,56,0.00,-RA,OVC,0.00,WeatherDisplay:10.37,2013-05-17 07:21:00,
2013-05-17 01:26:00,57.6,42.5,29.88,WSW,239,0.0,0.0,57,0.00,-RA,OVC,0.00,WeatherDisplay:10.37,2013-05-17 07:26:00,
2013-05-17 01:31:00,57.6,42.0,29.88,WSW,239,2.3,2.3,56,0.00,-RA,OVC,0.00,WeatherDisplay:10.37,2013-05-17 07:31:00,
2013-05-17 01:36:00,57.6,42.5,29.88,WSW,239,2.3,2.3,57,0.00,-RA,OVC,0.00,WeatherDisplay:10.37,2013-05-17 07:36:00,
2013-05-17 01:41:00,57.6,42.9,29.88,WSW,239,0.0,0.0,58,0.00,-RA,OVC,0.00,WeatherDisplay:10.37,2013-05-17 07:41:00,
2013-05-17 01:46:00,57.6,42.0,29.88,WSW,239,0.0,0.0,56,0.00,-RA,OVC,0.00,WeatherDisplay:10.37,2013-05-17 07:46:00,
2013-05-17 01:51:00,57.5,42.4,29.88,WSW,239,0.0,0.0,57,0.00,-RA,OVC,0.00,WeatherDisplay:10.37,2013-05-17 07:51:00,
2013-05-17 01:56:00,57.4,42.3,29.88,WSW,239,0.0,0.0,57,0.00,-RA,OVC,0.00,WeatherDisplay:10.37,2013-05-17 07:56:00,
2013-05-17 02:01:00,57.3,42.2,29.88,WSW,239,0.0,0.0,57,0.00,-RA,OVC,0.00,WeatherDisplay:10.37,2013-05-17 08:01:00,
2013-05-17 02:06:00,57.1,42.5,29.88,WSW,239,1.1,1.1,58,0.00,-RA,OVC,0.00,WeatherDisplay:10.37,2013-05-17 08:06:00,
2013-05-17 02:11:00,56.7,43.0,29.88,WSW,239,0.0,0.0,60,0.00,-RA,OVC,0.00,WeatherDisplay:10.37,2013-05-17 08:11:00,
2013-05-17 02:16:00,56.4,42.7,29.93,WSW,239,0.0,0.0,60,0.00,-RA,OVC,0.00,WeatherDisplay:10.37,2013-05-17 08:16:00,
2013-05-17 02:21:00,56.3,42.6,29.93,WSW,239,1.1,0.0,60,0.00,-RA,OVC,0.00,WeatherDisplay:10.37,2013-05-17 08:21:00,
2013-05-17 02:26:00,56.3,42.6,29.93,WSW,239,0.0,0.0,60,0.00,-RA,OVC,0.00,WeatherDisplay:10.37,2013-05-17 08:26:00,
2013-05-17 02:31:00,56.2,42.5,29.93,WSW,239,0.0,0.0,60,0.00,-RA,OVC,0.00,WeatherDisplay:10.37,2013-05-17 08:31:00,
2013-05-17 02:36:00,56.1,42.4,29.93,WSW,239,0.0,0.0,60,0.00,-RA,OVC,0.00,WeatherDisplay:10.37,2013-05-17 08:36:00,
2013-05-17 02:41:00,55.9,42.6,29.93,WSW,239,1.1,1.1,61,0.00,-RA,OVC,0.00,WeatherDisplay:10.37,2013-05-17 08:41:00,
2013-05-17 02:46:00,55.7,42.5,29.93,WSW,239,2.3,2.3,61,0.00,-RA,OVC,0.00,WeatherDisplay:10.37,2013-05-17 08:46:00,
2013-05-17 02:51:00,55.5,41.8,29.93,WSW,239,0.0,0.0,60,0.00,-RA,OVC,0.00,WeatherDisplay:10.37,2013-05-17 08:51:00,
2013-05-17 02:56:00,55.3,42.1,29.93,WSW,239,0.0,0.0,61,0.00,-RA,OVC,0.00,WeatherDisplay:10.37,2013-05-17 08:56:00,
2013-05-17 03:01:00,55.0,42.2,29.93,WSW,239,0.0,0.0,62,0.00,-RA,OVC,0.00,WeatherDisplay:10.37,2013-05-17 09:01:00,
2013-05-17 03:06:00,54.9,42.1,29.93,WSW,239,0.0,0.0,62,0.00,-RA,OVC,0.00,WeatherDisplay:10.37,2013-05-17 09:06:00,
2013-05-17 03:11:00,54.7,42.3,29.93,WSW,239,1.1,0.0,63,0.00,-RA,OVC,0.00,WeatherDisplay:10.37,2013-05-17 09:11:00,
2013-05-17 03:16:00,54.4,42.1,29.93,WSW,239,0.0,0.0,63,0.00,-RA,OVC,0.00,WeatherDisplay:10.37,2013-05-17 09:16:00,
2013-05-17 03:21:00,54.2,42.3,29.93,WSW,239,0.0,0.0,64,0.00,-RA,OVC,0.00,WeatherDisplay:10.37,2013-05-17 09:21:00,
2013-05-17 03:26:00,53.9,42.0,29.93,WSW,239,0.0,0.0,64,0.00,-RA,OVC,0.00,WeatherDisplay:10.37,2013-05-17 09:26:00,
2013-05-17 03:31:00,53.6,42.1,29.93,WSW,239,0.0,0.0,65,0.00,-RA,OVC,0.00,WeatherDisplay:10.37,2013-05-17 09:31:00,
2013-05-17 03:36:00,53.4,41.9,29.93,WSW,239,0.0,0.0,65,0.00,-RA,OVC,0.00,WeatherDisplay:10.37,2013-05-17 09:36:00,
2013-05-17 03:41:00,53.2,42.1,29.93,WSW,239,2.0,2.0,66,0.00,-RA,OVC,0.00,WeatherDisplay:10.37,2013-05-17 09:41:00,
2013-05-17 03:46:00,53.1,41.6,29.93,WSW,239,0.0,0.0,65,0.00,-RA,OVC,0.00,WeatherDisplay:10.37,2013-05-17 09:46:00,
2013-05-17 03:51:00,53.1,41.6,29.93,WSW,239,0.0,0.0,65,0.00,-RA,OVC,0.00,WeatherDisplay:10.37,2013-05-17 09:51:00,
2013-05-17 03:56:00,53.0,41.5,29.93,WSW,239,0.0,0.0,65,0.00,-RA,OVC,0.00,WeatherDisplay:10.37,2013-05-17 09:56:00,
2013-05-17 04:01:00,52.9,41.4,29.93,WSW,239,0.0,0.0,65,0.00,-RA,OVC,0.00,WeatherDisplay:10.37,2013-05-17 10:01:00,
2013-05-17 04:06:00,52.7,41.7,29.93,WSW,239,1.1,1.1,66,0.00,-RA,OVC,0.00,WeatherDisplay:10.37,2013-05-17 10:06:00,
2013-05-17 04:11:00,52.3,42.0,29.93,WSW,239,1.1,0.0,68,0.00,-RA,OVC,0.00,WeatherDisplay:10.37,2013-05-17 10:11:00,
2013-05-17 04:16:00,52.1,42.2,29.93,WSW,239,0.0,0.0,69,0.00,-RA,OVC,0.00,WeatherDisplay:10.37,2013-05-17 10:16:00,
2013-05-17 04:21:00,51.8,41.9,29.93,WSW,239,0.0,0.0,69,0.00,-RA,OVC,0.00,WeatherDisplay:10.37,2013-05-17 10:21:00,
2013-05-17 04:26:00,51.5,41.7,29.93,WSW,239,0.0,0.0,69,0.00,-RA,OVC,0.00,WeatherDisplay:10.37,2013-05-17 10:26:00,
2013-05-17 04:31:00,51.2,41.7,29.93,WSW,239,0.0,0.0,70,0.00,-RA,OVC,0.00,WeatherDisplay:10.37,2013-05-17 10:31:00,
2013-05-17 04:36:00,51.0,41.6,29.93,WSW,239,0.0,0.0,70,0.00,-RA,OVC,0.00,WeatherDisplay:10.37,2013-05-17 10:36:00,
2013-05-17 04:41:00,50.8,41.7,29.93,WSW,239,0.0,0.0,71,0.00,-RA,OVC,0.00,WeatherDisplay:10.37,2013-05-17 10:41:00,
2013-05-17 04:46:00,50.6,41.5,29.93,WSW,239,0.0,0.0,71,0.00,-RA,OVC,0.00,WeatherDisplay:10.37,2013-05-17 10:46:00,
2013-05-17 04:51:00,50.5,41.4,29.93,WSW,239,0.0,0.0,71,0.00,-RA,OVC,0.00,WeatherDisplay:10.37,2013-05-17 10:51:00,
2013-05-17 04:56:00,50.4,41.3,29.93,WSW,239,0.0,0.0,71,0.00,-RA,OVC,0.00,WeatherDisplay:10.37,2013-05-17 10:56:00,
2013-05-17 05:01:00,50.4,41.3,29.93,WSW,239,0.0,0.0,71,0.00,-RA,OVC,0.00,WeatherDisplay:10.37,2013-05-17 11:01:00,
2013-05-17 05:06:00,50.3,41.3,29.93,WSW,239,0.0,0.0,71,0.00,-RA,OVC,0.00,WeatherDisplay:10.37,2013-05-17 11:06:00,
2013-05-17 05:11:00,50.1,41.4,29.93,WSW,239,0.0,0.0,72,0.00,-RA,OVC,0.00,WeatherDisplay:10.37,2013-05-17 11:11:00,
2013-05-17 05:16:00,49.9,41.2,29.93,WSW,239,0.0,0.0,72,0.00,-RA,OVC,0.00,WeatherDisplay:10.37,2013-05-17 11:16:00,
2013-05-17 05:21:00,49.7,41.0,29.92,WSW,239,0.0,0.0,72,0.00,-RA,OVC,0.00,WeatherDisplay:10.37,2013-05-17 11:21:00,
2013-05-17 05:26:00,49.6,40.9,29.92,WSW,239,0.0,0.0,72,0.00,-RA,OVC,0.00,WeatherDisplay:10.37,2013-05-17 11:26:00,
2013-05-17 05:31:00,49.6,40.9,29.92,WSW,239,0.0,0.0,72,0.00,-RA,OVC,0.00,WeatherDisplay:10.37,2013-05-17 11:31:00,
2013-05-17 05:36:00,49.6,40.2,29.92,WSW,239,0.0,0.0,70,0.00,-RA,OVC,0.00,WeatherDisplay:10.37,2013-05-17 11:36:00,
2013-05-17 05:41:00,49.6,40.6,29.92,WSW,239,0.0,0.0,71,0.00,-RA,OVC,0.00,WeatherDisplay:10.37,2013-05-17 11:41:00,
2013-05-17 05:46:00,49.6,40.2,29.92,WSW,239,0.0,0.0,70,0.00,-RA,OVC,0.00,WeatherDisplay:10.37,2013-05-17 11:46:00,
2013-05-17 05:51:00,49.6,40.6,29.92,WSW,239,0.0,0.0,71,0.00,-RA,OVC,0.00,WeatherDisplay:10.37,2013-05-17 11:51:00,
2013-05-17 05:56:00,49.6,40.2,29.92,WSW,239,0.0,0.0,70,0.00,-RA,OVC,0.00,WeatherDisplay:10.37,2013-05-17 11:56:00,
2013-05-17 06:01:00,49.6,40.2,29.92,WSW,239,0.0,0.0,70,0.00,-RA,OVC,0.00,WeatherDisplay:10.37,2013-05-17 12:01:00,
2013-05-17 06:06:00,49.7,40.3,29.92,WSW,239,0.0,0.0,70,0.00,-RA,OVC,0.00,WeatherDisplay:10.37,2013-05-17 12:06:00,
2013-05-17 06:11:00,49.8,40.8,29.92,WSW,239,0.0,0.0,71,0.00,-RA,OVC,0.00,WeatherDisplay:10.37,2013-05-17 12:11:00,
2013-05-17 06:16:00,50.0,40.6,29.92,WSW,239,0.0,0.0,70,0.00,-RA,OVC,0.00,WeatherDisplay:10.37,2013-05-17 12:16:00,
2013-05-17 06:21:00,50.1,40.3,29.92,WSW,239,0.0,0.0,69,0.00,-RA,OVC,0.00,WeatherDisplay:10.37,2013-05-17 12:21:00,
2013-05-17 06:26:00,50.3,40.9,29.92,WSW,239,0.0,0.0,70,0.00,-RA,OVC,0.00,WeatherDisplay:10.37,2013-05-17 12:26:00,
2013-05-17 06:31:00,50.5,41.1,29.92,WSW,239,0.0,0.0,70,0.00,-RA,OVC,0.00,WeatherDisplay:10.37,2013-05-17 12:31:00,
2013-05-17 06:36:00,50.8,41.7,29.92,WSW,239,0.0,0.0,71,0.00,-RA,OVC,0.00,WeatherDisplay:10.37,2013-05-17 12:36:00,
2013-05-17 06:41:00,50.9,41.5,29.92,WSW,239,0.0,0.0,70,0.00,-RA,OVC,0.00,WeatherDisplay:10.37,2013-05-17 12:41:00,
2013-05-17 06:46:00,51.2,42.1,29.92,WSW,239,0.0,0.0,71,0.00,-RA,OVC,0.00,WeatherDisplay:10.37,2013-05-17 12:46:00,
2013-05-17 06:51:00,51.3,41.8,29.92,WSW,239,0.0,0.0,70,0.00,-RA,OVC,0.00,WeatherDisplay:10.37,2013-05-17 12:51:00,
2013-05-17 06:56:00,51.6,42.5,29.92,WSW,239,0.0,0.0,71,0.00,-RA,OVC,0.00,WeatherDisplay:10.37,2013-05-17 12:56:00,
2013-05-17 07:01:00,51.9,43.2,29.92,WSW,239,0.0,0.0,72,0.00,-RA,OVC,0.00,WeatherDisplay:10.37,2013-05-17 13:01:00,
2013-05-17 07:06:00,52.4,43.6,29.92,WSW,239,0.0,0.0,72,0.00,-RA,OVC,0.00,WeatherDisplay:10.37,2013-05-17 13:06:00,
2013-05-17 07:11:00,53.2,43.7,29.92,WSW,239,0.0,0.1,70,0.00,-RA,OVC,0.00,WeatherDisplay:10.37,2013-05-17 13:11:00,
2013-05-17 07:16:00,54.2,43.1,29.92,WSW,239,0.0,0.0,66,0.00,-RA,OVC,0.00,WeatherDisplay:10.37,2013-05-17 13:16:00,
2013-05-17 07:21:00,55.3,42.1,29.92,WSW,239,2.3,2.3,61,0.00,-RA,OVC,0.00,WeatherDisplay:10.37,2013-05-17 13:21:00,
2013-05-17 07:26:00,56.6,42.0,29.92,WSW,239,1.1,1.1,58,0.00,-RA,OVC,0.00,WeatherDisplay:10.37,2013-05-17 13:26:00,
2013-05-17 07:31:00,57.6,42.0,29.92,WSW,239,1.1,1.1,56,0.00,-RA,OVC,0.00,WeatherDisplay:10.37,2013-05-17 13:31:00,
2013-05-17 07:36:00,58.7,41.6,29.92,WSW,239,2.3,2.3,53,0.00,-RA,OVC,0.00,WeatherDisplay:10.37,2013-05-17 13:36:00,
2013-05-17 07:41:00,59.8,42.1,29.92,WSW,239,1.1,1.1,52,0.00,-RA,OVC,0.00,WeatherDisplay:10.37,2013-05-17 13:41:00,
2013-05-17 07:46:00,60.8,42.5,29.92,WSW,239,0.0,0.0,51,0.00,-RA,OVC,0.00,WeatherDisplay:10.37,2013-05-17 13:46:00,
2013-05-17 07:51:00,61.9,42.5,29.92,WSW,239,0.0,0.0,49,0.00,-RA,OVC,0.00,WeatherDisplay:10.37,2013-05-17 13:51:00,
2013-05-17 07:56:00,63.4,44.4,29.92,WSW,239,1.1,1.1,50,0.00,-RA,OVC,0.00,WeatherDisplay:10.37,2013-05-17 13:56:00,
2013-05-17 08:01:00,65.1,43.8,29.92,WSW,239,1.1,1.1,46,0.00,-RA,OVC,0.00,WeatherDisplay:10.37,2013-05-17 14:01:00,
2013-05-17 08:06:00,66.4,43.8,29.92,WSW,239,3.5,3.5,44,0.00,-RA,OVC,0.00,WeatherDisplay:10.37,2013-05-17 14:06:00,
2013-05-17 08:11:00,67.3,43.4,29.92,WNW,282,3.5,3.5,42,0.00,-RA,OVC,0.00,WeatherDisplay:10.37,2013-05-17 14:11:00,
2013-05-17 08:16:00,67.8,43.9,29.92,WNW,282,2.3,2.3,42,0.00,-RA,OVC,0.00,WeatherDisplay:10.37,2013-05-17 14:16:00,
2013-05-17 08:21:00,68.2,43.6,29.92,WNW,282,0.0,0.0,41,0.00,-RA,OVC,0.00,WeatherDisplay:10.37,2013-05-17 14:21:00,
2013-05-17 08:26:00,68.8,43.5,29.92,WNW,282,1.1,1.1,40,0.00,-RA,OVC,0.00,WeatherDisplay:10.37,2013-05-17 14:26:00,
2013-05-17 08:31:00,69.4,43.4,29.92,WNW,298,5.8,5.8,39,0.00,-RA,OVC,0.00,WeatherDisplay:10.37,2013-05-17 14:31:00,
2013-05-17 08:36:00,69.3,43.3,29.92,WNW,302,3.5,0.0,39,0.00,-RA,OVC,0.00,WeatherDisplay:10.37,2013-05-17 14:36:00,
2013-05-17 08:41:00,69.2,43.2,29.92,WNW,302,0.0,0.1,39,0.00,-RA,OVC,0.00,WeatherDisplay:10.37,2013-05-17 14:41:00,
2013-05-17 08:46:00,69.7,44.9,29.92,NW,310,4.0,4.0,41,0.00,-RA,OVC,0.00,WeatherDisplay:10.37,2013-05-17 14:46:00,
2013-05-17 08:51:00,70.0,42.5,29.92,North,5,3.5,3.6,37,0.00,-RA,OVC,0.00,WeatherDisplay:10.37,2013-05-17 14:51:00,
2013-05-17 08:56:00,69.7,42.3,29.92,North,355,3.5,3.5,37,0.00,-RA,OVC,0.00,WeatherDisplay:10.37,2013-05-17 14:56:00,
2013-05-17 09:01:00,69.9,43.1,29.92,North,355,3.5,3.5,38,0.00,-RA,OVC,0.00,WeatherDisplay:10.37,2013-05-17 15:01:00,
2013-05-17 09:06:00,70.3,42.1,29.92,NE,36,5.8,5.8,36,0.00,-RA,OVC,0.00,WeatherDisplay:10.37,2013-05-17 15:06:00,
2013-05-17 09:11:00,70.4,42.2,29.92,NE,35,2.3,2.3,36,0.00,-RA,OVC,0.00,WeatherDisplay:10.37,2013-05-17 15:11:00,
2013-05-17 09:16:00,70.8,42.5,29.92,NE,36,3.5,3.5,36,0.00,-RA,OVC,0.00,WeatherDisplay:10.37,2013-05-17 15:16:00,
2013-05-17 09:21:00,71.7,41.0,29.93,NNE,12,4.6,4.6,33,0.00,-RA,OVC,0.00,WeatherDisplay:10.37,2013-05-17 15:21:00,
2013-05-17 09:26:00,72.1,39.8,29.93,NNE,13,3.5,3.5,31,0.00,-RA,OVC,0.00,WeatherDisplay:10.37,2013-05-17 15:26:00,
2013-05-17 09:31:00,72.5,41.0,29.93,NNW,342,6.9,6.9,32,0.00,-RA,OVC,0.00,WeatherDisplay:10.37,2013-05-17 15:31:00,
2013-05-17 09:36:00,73.0,40.6,29.93,NNW,342,9.2,9.2,31,0.00,-RA,OVC,0.00,WeatherDisplay:10.37,2013-05-17 15:36:00,
2013-05-17 09:41:00,73.7,40.3,29.93,NNW,335,3.5,3.5,30,0.00,-RA,OVC,0.00,WeatherDisplay:10.37,2013-05-17 15:41:00,
2013-05-17 09:46:00,74.2,39.9,29.93,NNW,348,3.5,3.5,29,0.00,-RA,OVC,0.00,WeatherDisplay:10.37,2013-05-17 15:46:00,
2013-05-17 09:51:00,74.8,40.4,29.93,NNW,345,4.6,4.6,29,0.00,-RA,OVC,0.00,WeatherDisplay:10.37,2013-05-17 15:51:00,
2013-05-17 09:56:00,75.3,41.7,29.93,NNW,336,1.1,1.1,30,0.00,-RA,OVC,0.00,WeatherDisplay:10.37,2013-05-17 15:56:00,
2013-05-17 10:01:00,76.3,38.9,29.93,NNW,336,2.3,2.3,26,0.00,-RA,OVC,0.00,WeatherDisplay:10.37,2013-05-17 16:01:00,
2013-05-17 10:06:00,76.6,39.1,29.93,NNW,336,2.3,2.3,26,0.00,-RA,OVC,0.00,WeatherDisplay:10.37,2013-05-17 16:06:00,
2013-05-17 10:11:00,77.2,40.6,29.93,NNW,332,3.5,3.5,27,0.00,-RA,OVC,0.00,WeatherDisplay:10.37,2013-05-17 16:11:00,
2013-05-17 10:16:00,77.6,40.0,29.93,NW,323,4.6,4.6,26,0.00,-RA,OVC,0.00,WeatherDisplay:10.37,2013-05-17 16:16:00,
2013-05-17 10:21:00,77.6,37.9,29.93,NW,324,3.5,3.5,24,0.00,-RA,OVC,0.00,WeatherDisplay:10.37,2013-05-17 16:21:00,
2013-05-17 10:26:00,78.0,39.3,29.93,NNW,333,9.2,9.2,25,0.00,-RA,OVC,0.00,WeatherDisplay:10.37,2013-05-17 16:26:00,
2013-05-17 10:31:00,78.6,39.8,29.93,NNW,333,3.5,3.5,25,0.00,-RA,OVC,0.00,WeatherDisplay:10.37,2013-05-17 16:31:00,
2013-05-17 10:36:00,79.2,33.4,29.93,NNW,336,5.8,5.8,19,0.00,-RA,OVC,0.00,WeatherDisplay:10.37,2013-05-17 16:36:00,
2013-05-17 10:41:00,79.6,33.7,29.93,NW,320,10.4,10.4,19,0.00,-RA,OVC,0.00,WeatherDisplay:10.37,2013-05-17 16:41:00,
2013-05-17 10:46:00,79.9,31.2,29.93,North,5,3.5,3.5,17,0.00,-RA,OVC,0.00,WeatherDisplay:10.37,2013-05-17 16:46:00,
2013-05-17 10:51:00,80.4,30.1,29.93,North,360,3.5,3.5,16,0.00,-RA,OVC,0.00,WeatherDisplay:10.37,2013-05-17 16:51:00,
2013-05-17 10:56:00,80.7,30.3,29.93,NW,325,6.0,6.0,16,0.00,-RA,OVC,0.00,WeatherDisplay:10.37,2013-05-17 16:56:00,
2013-05-17 11:01:00,81.0,32.1,29.93,North,360,10.4,10.4,17,0.00,-RA,OVC,0.00,WeatherDisplay:10.37,2013-05-17 17:01:00,
2013-05-17 11:06:00,80.9,23.5,29.93,NE,55,6.9,6.9,12,0.00,-RA,OVC,0.00,WeatherDisplay:10.37,2013-05-17 17:06:00,
2013-05-17 11:11:00,81.0,23.6,29.93,NE,50,8.1,8.1,12,0.00,-RA,OVC,0.00,WeatherDisplay:10.37,2013-05-17 17:11:00,
2013-05-17 11:16:00,81.2,23.7,29.91,ENE,57,5.8,5.8,12,0.00,-RA,OVC,0.00,WeatherDisplay:10.37,2013-05-17 17:16:00,
2013-05-17 11:21:00,81.4,25.8,29.91,ENE,63,11.5,11.5,13,0.00,-RA,OVC,0.00,WeatherDisplay:10.37,2013-05-17 17:21:00,
2013-05-17 11:26:00,81.5,24.0,29.91,ENE,73,9.2,9.2,12,0.00,-RA,OVC,0.00,WeatherDisplay:10.37,2013-05-17 17:26:00,
2013-05-17 11:31:00,81.3,23.8,29.91,ESE,114,5.8,5.8,12,0.00,-RA,OVC,0.00,WeatherDisplay:10.37,2013-05-17 17:31:00,
2013-05-17 11:36:00,81.4,23.9,29.91,NW,322,5.8,5.8,12,0.00,-RA,OVC,0.00,WeatherDisplay:10.37,2013-05-17 17:36:00,
2013-05-17 11:41:00,81.9,29.7,29.91,North,5,4.6,4.6,15,0.00,-RA,OVC,0.00,WeatherDisplay:10.37,2013-05-17 17:41:00,
2013-05-17 11:46:00,82.2,28.2,29.91,North,5,3.5,3.5,14,0.00,-RA,OVC,0.00,WeatherDisplay:10.37,2013-05-17 17:46:00,
2013-05-17 11:51:00,81.9,24.3,29.91,NNW,336,5.0,5.0,12,0.00,-RA,OVC,0.00,WeatherDisplay:10.37,2013-05-17 17:51:00,
2013-05-17 11:56:00,82.1,28.2,29.91,North,9,5.8,5.8,14,0.00,-RA,OVC,0.00,WeatherDisplay:10.37,2013-05-17 17:56:00,
2013-05-17 12:01:00,82.6,26.7,29.91,ESE,103,12.7,12.7,13,0.00,-RA,OVC,0.00,WeatherDisplay:10.37,2013-05-17 18:01:00,
2013-05-17 12:06:00,82.8,30.4,29.91,NNW,344,9.2,9.2,15,0.00,-RA,OVC,0.00,WeatherDisplay:10.37,2013-05-17 18:06:00,
2013-05-17 12:11:00,82.7,28.6,29.90,NNE,30,11.5,11.5,14,0.00,-RA,OVC,0.00,WeatherDisplay:10.37,2013-05-17 18:11:00,
2013-05-17 12:16:00,82.2,26.4,29.90,NNE,19,5.8,5.8,13,0.00,-RA,OVC,0.00,WeatherDisplay:10.37,2013-05-17 18:16:00,
2013-05-17 12:21:00,82.5,24.7,29.90,NE,40,3.5,3.5,12,0.00,-RA,OVC,0.00,WeatherDisplay:10.37,2013-05-17 18:21:00,
2013-05-17 12:26:00,82.8,26.9,29.90,NE,51,11.5,11.5,13,0.00,-RA,OVC,0.00,WeatherDisplay:10.37,2013-05-17 18:26:00,
2013-05-17 12:31:00,83.1,23.1,29.90,NE,38,11.5,11.5,11,0.00,-RA,OVC,0.00,WeatherDisplay:10.37,2013-05-17 18:31:00,
2013-05-17 12:36:00,82.9,25.1,29.90,NE,35,5.0,5.0,12,0.00,-RA,OVC,0.00,WeatherDisplay:10.37,2013-05-17 18:36:00,
2013-05-17 12:41:00,83.1,20.9,29.90,NNE,20,3.5,3.5,10,0.00,-RA,OVC,0.00,WeatherDisplay:10.37,2013-05-17 18:41:00,
2013-05-17 12:46:00,83.4,23.4,29.90,North,5,12.7,12.7,11,0.00,-RA,OVC,0.00,WeatherDisplay:10.37,2013-05-17 18:46:00,
2013-05-17 12:51:00,83.1,25.2,29.90,NNE,14,6.9,6.9,12,0.00,-RA,OVC,0.00,WeatherDisplay:10.37,2013-05-17 18:51:00,
2013-05-17 12:56:00,83.4,27.4,29.90,NW,311,9.2,9.2,13,0.00,-RA,OVC,0.00,WeatherDisplay:10.37,2013-05-17 18:56:00,
2013-05-17 13:01:00,83.7,27.6,29.90,NNW,330,11.5,11.5,13,0.00,-RA,OVC,0.00,WeatherDisplay:10.37,2013-05-17 19:01:00,
2013-05-17 13:06:00,83.5,25.5,29.90,WNW,299,11.5,11.5,12,0.00,-RA,OVC,0.00,WeatherDisplay:10.37,2013-05-17 19:06:00,
2013-05-17 13:11:00,83.4,25.4,29.90,WNW,292,9.2,9.2,12,0.00,-RA,OVC,0.00,WeatherDisplay:10.37,2013-05-17 19:11:00,
2013-05-17 13:16:00,83.6,27.5,29.90,North,350,5.8,5.8,13,0.00,-RA,OVC,0.00,WeatherDisplay:10.37,2013-05-17 19:16:00,
2013-05-17 13:21:00,83.9,29.6,29.90,NW,308,4.6,4.6,14,0.00,-RA,OVC,0.00,WeatherDisplay:10.37,2013-05-17 19:21:00,
2013-05-17 13:26:00,84.1,29.7,29.87,WNW,299,6.9,6.9,14,0.00,-RA,OVC,0.00,WeatherDisplay:10.37,2013-05-17 19:26:00,
2013-05-17 13:31:00,84.4,26.2,29.87,NNW,335,9.2,9.2,12,0.00,-RA,OVC,0.00,WeatherDisplay:10.37,2013-05-17 19:31:00,
2013-05-17 13:36:00,84.5,28.2,29.86,NNE,22,11.5,11.5,13,0.00,-RA,OVC,0.00,WeatherDisplay:10.37,2013-05-17 19:36:00,
2013-05-17 13:41:00,84.3,26.1,29.86,NW,326,6.9,6.9,12,0.00,-RA,OVC,0.00,WeatherDisplay:10.37,2013-05-17 19:41:00,
2013-05-17 13:46:00,84.5,26.3,29.86,NW,319,6.9,6.9,12,0.00,-RA,OVC,0.00,WeatherDisplay:10.37,2013-05-17 19:46:00,
2013-05-17 13:51:00,84.9,26.6,29.86,NE,42,12.7,12.7,12,0.00,-RA,OVC,0.00,WeatherDisplay:10.37,2013-05-17 19:51:00,
2013-05-17 13:56:00,84.6,24.3,29.86,North,5,8.1,8.1,11,0.00,-RA,OVC,0.00,WeatherDisplay:10.37,2013-05-17 19:56:00,
2013-05-17 14:01:00,84.4,24.1,29.86,NNE,22,12.7,12.7,11,0.00,-RA,OVC,0.00,WeatherDisplay:10.37,2013-05-17 20:01:00,
2013-05-17 14:06:00,84.5,24.2,29.86,NNE,12,12.7,12.7,11,0.00,-RA,OVC,0.00,WeatherDisplay:10.37,2013-05-17 20:06:00,
2013-05-17 14:11:00,84.3,24.0,29.86,ENE,67,16.1,16.1,11,0.00,-RA,OVC,0.00,WeatherDisplay:10.37,2013-05-17 20:11:00,
2013-05-17 14:16:00,84.8,24.4,29.86,ESE,115,12.7,12.7,11,0.00,-RA,OVC,0.00,WeatherDisplay:10.37,2013-05-17 20:16:00,
2013-05-17 14:21:00,84.8,22.2,29.86,ENE,61,5.8,5.8,10,0.00,-RA,OVC,0.00,WeatherDisplay:10.37,2013-05-17 20:21:00,
2013-05-17 14:26:00,84.7,22.1,29.86,NNE,13,11.5,11.5,10,0.00,-RA,OVC,0.00,WeatherDisplay:10.37,2013-05-17 20:26:00,
2013-05-17 14:31:00,85.0,22.3,29.86,ENE,68,10.4,10.4,10,0.00,-RA,OVC,0.00,WeatherDisplay:10.37,2013-05-17 20:31:00,
2013-05-17 14:36:00,85.2,20.0,29.86,NE,54,18.4,18.4,9,0.00,-RA,OVC,0.00,WeatherDisplay:10.37,2013-05-17 20:36:00,
2013-05-17 14:41:00,85.4,22.6,29.86,ENE,76,11.5,11.5,10,0.00,-RA,OVC,0.00,WeatherDisplay:10.37,2013-05-17 20:41:00,
2013-05-17 14:46:00,86.0,20.6,29.86,SE,131,10.4,10.4,9,0.00,-RA,OVC,0.00,WeatherDisplay:10.37,2013-05-17 20:46:00,
2013-05-17 14:51:00,86.2,23.2,29.86,NNE,24,8.1,8.1,10,0.00,-RA,OVC,0.00,WeatherDisplay:10.37,2013-05-17 20:51:00,
2013-05-17 14:56:00,86.0,23.1,29.86,ENE,67,6.9,6.9,10,0.00,-RA,OVC,0.00,WeatherDisplay:10.37,2013-05-17 20:56:00,
2013-05-17 15:01:00,86.0,20.6,29.86,East,86,11.5,11.5,9,0.00,-RA,OVC,0.00,WeatherDisplay:10.37,2013-05-17 21:01:00,
2013-05-17 15:06:00,86.1,17.9,29.86,NNE,17,13.8,13.8,8,0.00,-RA,OVC,0.00,WeatherDisplay:10.37,2013-05-17 21:06:00,
2013-05-17 15:11:00,85.9,20.5,29.86,NE,46,11.5,11.5,9,0.00,-RA,OVC,0.00,WeatherDisplay:10.37,2013-05-17 21:11:00,
2013-05-17 15:16:00,85.8,20.4,29.86,SE,124,10.0,10.0,9,0.00,-RA,OVC,0.00,WeatherDisplay:10.37,2013-05-17 21:16:00,
2013-05-17 15:21:00,86.2,20.7,29.86,ESE,120,4.6,4.6,9,0.00,-RA,OVC,0.00,WeatherDisplay:10.37,2013-05-17 21:21:00,
2013-05-17 15:26:00,86.2,18.0,29.84,NE,38,12.7,12.7,8,0.00,-RA,OVC,0.00,WeatherDisplay:10.37,2013-05-17 21:26:00,
2013-05-17 15:31:00,85.9,17.7,29.84,NE,56,6.9,6.9,8,0.00,-RA,OVC,0.00,WeatherDisplay:10.37,2013-05-17 21:31:00,
2013-05-17 15:36:00,85.8,20.4,29.84,NNE,17,5.8,5.9,9,0.00,-RA,OVC,0.00,WeatherDisplay:10.37,2013-05-17 21:36:00,
2013-05-17 15:41:00,86.0,20.6,29.84,NNE,22,12.0,12.0,9,0.00,-RA,OVC,0.00,WeatherDisplay:10.37,2013-05-17 21:41:00,
2013-05-17 15:46:00,86.1,23.1,29.84,NE,43,6.0,6.0,10,0.00,-RA,OVC,0.00,WeatherDisplay:10.37,2013-05-17 21:46:00,
2013-05-17 15:51:00,86.0,20.6,29.84,NE,54,4.6,4.6,9,0.00,-RA,OVC,0.00,WeatherDisplay:10.37,2013-05-17 21:51:00,
2013-05-17 15:56:00,85.9,20.5,29.84,ENE,65,11.5,11.5,9,0.00,-RA,OVC,0.00,WeatherDisplay:10.37,2013-05-17 21:56:00,
2013-05-17 16:01:00,85.8,20.4,29.84,NNE,28,4.6,4.6,9,0.00,-RA,OVC,0.00,WeatherDisplay:10.37,2013-05-17 22:01:00,
2013-05-17 16:06:00,86.0,20.6,29.84,NE,38,3.5,3.5,9,0.00,-RA,OVC,0.00,WeatherDisplay:10.37,2013-05-17 22:06:00,
2013-05-17 16:11:00,86.6,18.3,29.84,East,90,10.4,10.4,8,0.00,-RA,OVC,0.00,WeatherDisplay:10.37,2013-05-17 22:11:00,
2013-05-17 16:16:00,86.6,18.3,29.84,ESE,115,6.9,6.9,8,0.00,-RA,OVC,0.00,WeatherDisplay:10.37,2013-05-17 22:16:00,
2013-05-17 16:21:00,86.3,20.8,29.84,ESE,109,11.5,11.5,9,0.00,-RA,OVC,0.00,WeatherDisplay:10.37,2013-05-17 22:21:00,
2013-05-17 16:26:00,86.2,20.7,29.84,ESE,113,5.8,5.8,9,0.00,-RA,OVC,0.00,WeatherDisplay:10.37,2013-05-17 22:26:00,
2013-05-17 16:31:00,86.4,20.9,29.84,ESE,121,6.9,6.9,9,0.00,-RA,OVC,0.00,WeatherDisplay:10.37,2013-05-17 22:31:00,
2013-05-17 16:36:00,85.9,20.5,29.84,SSE,166,5.8,5.8,9,0.00,-RA,OVC,0.00,WeatherDisplay:10.37,2013-05-17 22:36:00,
2013-05-17 16:41:00,85.9,23.0,29.84,SSE,163,3.5,3.5,10,0.00,-RA,OVC,0.00,WeatherDisplay:10.37,2013-05-17 22:41:00,
2013-05-17 16:46:00,86.1,23.1,29.84,ENE,64,3.5,3.5,10,0.00,-RA,OVC,0.00,WeatherDisplay:10.37,2013-05-17 22:46:00,
2013-05-17 16:51:00,86.4,20.9,29.84,NNE,33,10.4,10.4,9,0.00,-RA,OVC,0.00,WeatherDisplay:10.37,2013-05-17 22:51:00,
2013-05-17 16:56:00,86.1,23.1,29.84,ESE,117,4.6,4.6,10,0.00,-RA,OVC,0.00,WeatherDisplay:10.37,2013-05-17 22:56:00,
2013-05-17 17:01:00,85.7,22.8,29.84,NE,54,3.5,3.5,10,0.00,-RA,OVC,0.00,WeatherDisplay:10.37,2013-05-17 23:01:00,
2013-05-17 17:06:00,85.4,20.1,29.84,ENE,65,3.5,3.5,9,0.00,-RA,OVC,0.00,WeatherDisplay:10.37,2013-05-17 23:06:00,
2013-05-17 17:11:00,85.0,19.8,29.84,NE,44,5.8,5.8,9,0.00,-RA,OVC,0.00,WeatherDisplay:10.37,2013-05-17 23:11:00,
2013-05-17 17:16:00,84.7,22.1,29.84,ESE,117,3.5,3.5,10,0.00,-RA,OVC,0.00,WeatherDisplay:10.37,2013-05-17 23:16:00,
2013-05-17 17:21:00,84.5,24.2,29.84,ESE,119,5.8,5.8,11,0.00,-RA,OVC,0.00,WeatherDisplay:10.37,2013-05-17 23:21:00,
2013-05-17 17:26:00,84.4,24.1,29.84,ESE,117,0.0,1.0,11,0.00,-RA,OVC,0.00,WeatherDisplay:10.37,2013-05-17 23:26:00,
2013-05-17 17:31:00,84.3,24.0,29.84,ESE,121,4.6,4.6,11,0.00,-RA,OVC,0.00,WeatherDisplay:10.37,2013-05-17 23:31:00,
2013-05-17 17:36:00,84.2,21.7,29.84,ESE,114,3.5,3.5,10,0.00,-RA,OVC,0.00,WeatherDisplay:10.37,2013-05-17 23:36:00,
2013-05-17 17:41:00,84.3,21.8,29.84,East,97,2.3,0.0,10,0.00,-RA,OVC,0.00,WeatherDisplay:10.37,2013-05-17 23:41:00,
2013-05-17 17:46:00,84.5,21.9,29.84,ESE,111,3.5,3.5,10,0.00,-RA,OVC,0.00,WeatherDisplay:10.37,2013-05-17 23:46:00,
2013-05-17 17:51:00,84.3,19.3,29.84,ESE,117,3.5,3.5,9,0.00,-RA,OVC,0.00,WeatherDisplay:10.37,2013-05-17 23:51:00,
2013-05-17 17:56:00,84.1,23.9,29.84,SE,140,3.5,3.5,11,0.00,-RA,OVC,0.00,WeatherDisplay:10.37,2013-05-17 23:56:00,
2013-05-17 18:01:00,84.1,23.9,29.84,SE,138,1.1,0.0,11,0.00,-RA,OVC,0.00,WeatherDisplay:10.37,2013-05-18 00:01:00,
2013-05-17 18:06:00,84.1,21.6,29.84,SE,134,6.0,6.0,10,0.00,-RA,OVC,0.00,WeatherDisplay:10.37,2013-05-18 00:06:00,
2013-05-17 18:11:00,83.9,21.5,29.84,ESE,107,3.5,3.5,10,0.00,-RA,OVC,0.00,WeatherDisplay:10.37,2013-05-18 00:11:00,
2013-05-17 18:16:00,83.7,21.3,29.84,ESE,121,4.6,4.6,10,0.00,-RA,OVC,0.00,WeatherDisplay:10.37,2013-05-18 00:16:00,
2013-05-17 18:21:00,83.6,23.5,29.84,East,90,4.6,4.6,11,0.00,-RA,OVC,0.00,WeatherDisplay:10.37,2013-05-18 00:21:00,
2013-05-17 18:26:00,83.3,23.3,29.84,East,99,8.1,8.1,11,0.00,-RA,OVC,0.00,WeatherDisplay:10.37,2013-05-18 00:26:00,
2013-05-17 18:31:00,82.9,25.1,29.84,NNE,27,12.7,12.7,12,0.00,-RA,OVC,0.00,WeatherDisplay:10.37,2013-05-18 00:31:00,
2013-05-17 18:36:00,82.3,28.3,29.84,NNE,26,6.9,6.9,14,0.00,-RA,OVC,0.00,WeatherDisplay:10.37,2013-05-18 00:36:00,
2013-05-17 18:41:00,82.0,24.4,29.84,NNE,15,6.9,6.9,12,0.00,-RA,OVC,0.00,WeatherDisplay:10.37,2013-05-18 00:41:00,
2013-05-17 18:46:00,81.8,26.1,29.84,North,9,6.9,6.9,13,0.00,-RA,OVC,0.00,WeatherDisplay:10.37,2013-05-18 00:46:00,
2013-05-17 18:51:00,81.6,24.0,29.84,NNE,21,4.6,4.6,12,0.00,-RA,OVC,0.00,WeatherDisplay:10.37,2013-05-18 00:51:00,
2013-05-17 18:56:00,81.4,23.9,29.84,NE,42,8.1,8.1,12,0.00,-RA,OVC,0.00,WeatherDisplay:10.37,2013-05-18 00:56:00,
2013-05-17 19:01:00,81.2,25.7,29.84,NNE,31,4.6,4.6,13,0.00,-RA,OVC,0.00,WeatherDisplay:10.37,2013-05-18 01:01:00,
2013-05-17 19:06:00,81.1,27.4,29.84,NNE,33,3.5,3.5,14,0.00,-RA,OVC,0.00,WeatherDisplay:10.37,2013-05-18 01:06:00,
2013-05-17 19:11:00,81.1,27.4,29.84,NE,53,3.5,3.5,14,0.00,-RA,OVC,0.00,WeatherDisplay:10.37,2013-05-18 01:11:00,
2013-05-17 19:16:00,81.1,29.1,29.84,ENE,63,3.5,3.5,15,0.00,-RA,OVC,0.00,WeatherDisplay:10.37,2013-05-18 01:16:00,
2013-05-17 19:21:00,80.9,27.2,29.84,ENE,57,3.5,3.5,14,0.00,-RA,OVC,0.00,WeatherDisplay:10.37,2013-05-18 01:21:00,
2013-05-17 19:26:00,80.6,27.0,29.84,NE,47,3.0,3.0,14,0.00,-RA,OVC,0.00,WeatherDisplay:10.37,2013-05-18 01:26:00,
2013-05-17 19:31:00,80.3,26.7,29.84,NE,47,2.3,2.3,14,0.00,-RA,OVC,0.00,WeatherDisplay:10.37,2013-05-18 01:31:00,
2013-05-17 19:36:00,79.9,28.1,29.84,NE,47,3.5,3.5,15,0.00,-RA,OVC,0.00,WeatherDisplay:10.37,2013-05-18 01:36:00,
2013-05-17 19:41:00,79.5,29.4,29.84,NE,47,3.5,3.5,16,0.00,-RA,OVC,0.00,WeatherDisplay:10.37,2013-05-18 01:41:00,
2013-05-17 19:46:00,79.1,29.0,29.84,NE,47,1.1,0.0,16,0.00,-RA,OVC,0.00,WeatherDisplay:10.37,2013-05-18 01:46:00,
2013-05-17 19:51:00,78.6,28.6,29.84,NE,47,2.0,2.0,16,0.00,-RA,OVC,0.00,WeatherDisplay:10.37,2013-05-18 01:51:00,
2013-05-17 19:56:00,78.1,29.7,29.84,NE,47,0.0,0.0,17,0.00,-RA,OVC,0.00,WeatherDisplay:10.37,2013-05-18 01:56:00,
2013-05-17 20:01:00,77.6,30.7,29.84,NE,47,0.0,0.0,18,0.00,-RA,OVC,0.00,WeatherDisplay:10.37,2013-05-18 02:01:00,
2013-05-17 20:06:00,77.1,31.6,29.83,NE,47,0.0,0.0,19,0.00,-RA,OVC,0.00,WeatherDisplay:10.37,2013-05-18 02:06:00,
2013-05-17 20:11:00,76.4,32.3,29.83,NE,47,0.0,0.0,20,0.00,-RA,OVC,0.00,WeatherDisplay:10.37,2013-05-18 02:11:00,
2013-05-17 20:16:00,75.7,34.1,29.83,NE,47,1.1,0.0,22,0.00,-RA,OVC,0.00,WeatherDisplay:10.37,2013-05-18 02:16:00,
2013-05-17 20:21:00,74.9,34.6,29.83,NE,47,0.0,0.1,23,0.00,-RA,OVC,0.00,WeatherDisplay:10.37,2013-05-18 02:21:00,
2013-05-17 20:26:00,74.0,33.8,29.83,NE,47,0.0,0.0,23,0.00,-RA,OVC,0.00,WeatherDisplay:10.37,2013-05-18 02:26:00,
2013-05-17 20:31:00,73.3,34.3,29.83,NE,47,0.0,0.0,24,0.00,-RA,OVC,0.00,WeatherDisplay:10.37,2013-05-18 02:31:00,
2013-05-17 20:36:00,72.6,34.7,29.83,NE,47,0.0,0.0,25,0.00,-RA,OVC,0.00,WeatherDisplay:10.37,2013-05-18 02:36:00,
2013-05-17 20:41:00,72.0,34.2,29.83,NE,47,0.0,0.0,25,0.00,-RA,OVC,0.00,WeatherDisplay:10.37,2013-05-18 02:41:00,
2013-05-17 20:46:00,71.4,32.7,29.83,NE,47,1.1,0.0,24,0.00,-RA,OVC,0.00,WeatherDisplay:10.37,2013-05-18 02:46:00,
2013-05-17 20:51:00,70.8,33.2,29.83,NE,47,0.0,0.0,25,0.00,-RA,OVC,0.00,WeatherDisplay:10.37,2013-05-18 02:51:00,
2013-05-17 20:56:00,70.2,34.6,29.83,NE,47,0.0,0.0,27,0.00,-RA,OVC,0.00,WeatherDisplay:10.37,2013-05-18 02:56:00,
2013-05-17 21:01:00,69.5,34.0,29.83,NE,47,1.1,1.1,27,0.00,-RA,OVC,0.00,WeatherDisplay:10.37,2013-05-18 03:01:00,
2013-05-17 21:06:00,69.2,29.8,29.83,East,101,3.5,0.0,23,0.00,-RA,OVC,0.00,WeatherDisplay:10.37,2013-05-18 03:06:00,
2013-05-17 21:11:00,69.1,33.7,29.83,East,101,2.3,2.3,27,0.00,-RA,OVC,0.00,WeatherDisplay:10.37,2013-05-18 03:11:00,
2013-05-17 21:16:00,68.8,30.5,29.83,East,101,1.1,0.0,24,0.00,-RA,OVC,0.00,WeatherDisplay:10.37,2013-05-18 03:16:00,
2013-05-17 21:21:00,68.7,31.4,29.83,East,101,0.0,0.0,25,0.00,-RA,OVC,0.00,WeatherDisplay:10.37,2013-05-18 03:21:00,
2013-05-17 21:26:00,68.4,30.2,29.83,East,101,1.1,0.0,24,0.00,-RA,OVC,0.00,WeatherDisplay:10.37,2013-05-18 03:26:00,
2013-05-17 21:31:00,68.1,29.9,29.83,East,101,0.0,0.0,24,0.00,-RA,OVC,0.00,WeatherDisplay:10.37,2013-05-18 03:31:00,
2013-05-17 21:36:00,67.8,31.6,29.83,East,101,0.0,0.0,26,0.00,-RA,OVC,0.00,WeatherDisplay:10.37,2013-05-18 03:36:00,
2013-05-17 21:41:00,67.3,32.1,29.83,East,101,0.0,0.0,27,0.00,-RA,OVC,0.00,WeatherDisplay:10.37,2013-05-18 03:41:00,
2013-05-17 21:46:00,66.9,31.8,29.83,East,101,0.0,0.0,27,0.00,-RA,OVC,0.00,WeatherDisplay:10.37,2013-05-18 03:46:00,
2013-05-17 21:51:00,66.6,30.6,29.83,East,101,1.1,1.1,26,0.00,-RA,OVC,0.00,WeatherDisplay:10.37,2013-05-18 03:51:00,
2013-05-17 21:56:00,66.5,32.4,29.83,East,101,1.1,0.0,28,0.00,-RA,OVC,0.00,WeatherDisplay:10.37,2013-05-18 03:56:00,
2013-05-17 22:01:00,66.2,30.3,29.83,East,101,0.0,0.0,26,0.00,-RA,OVC,0.00,WeatherDisplay:10.37,2013-05-18 04:01:00,
2013-05-17 22:02:00,66.2,29.3,29.83,East,101,0.0,0.0,25,0.00,-RA,OVC,0.00,WeatherDisplay:10.37,2013-05-18 04:02:00,
2013-05-17 22:07:00,66.0,31.0,29.83,East,101,0.0,0.0,27,0.00,-RA,OVC,0.00,WeatherDisplay:10.37,2013-05-18 04:07:00,
2013-05-17 22:12:00,65.7,30.8,29.83,East,101,0.0,0.0,27,0.00,-RA,OVC,0.00,WeatherDisplay:10.37,2013-05-18 04:12:00,
2013-05-17 22:17:00,65.3,30.4,29.83,East,101,0.0,0.0,27,0.00,-RA,OVC,0.00,WeatherDisplay:10.37,2013-05-18 04:17:00,
2013-05-17 22:22:00,64.9,31.0,29.83,East,101,0.0,0.0,28,0.00,-RA,OVC,0.00,WeatherDisplay:10.37,2013-05-18 04:22:00,
2013-05-17 22:27:00,64.3,31.3,29.83,East,101,0.0,0.0,29,0.00,-RA,OVC,0.00,WeatherDisplay:10.37,2013-05-18 04:27:00,
2013-05-17 22:32:00,63.8,31.7,29.83,East,101,0.0,0.0,30,0.00,-RA,OVC,0.00,WeatherDisplay:10.37,2013-05-18 04:32:00,
2013-05-17 22:37:00,63.2,30.4,29.83,East,101,0.0,0.0,29,0.00,-RA,OVC,0.00,WeatherDisplay:10.37,2013-05-18 04:37:00,
2013-05-17 22:42:00,63.1,31.1,29.83,East,101,0.0,0.0,30,0.00,-RA,OVC,0.00,WeatherDisplay:10.37,2013-05-18 04:42:00,
2013-05-17 22:47:00,62.8,32.5,29.83,East,101,1.1,1.1,32,0.00,-RA,OVC,0.00,WeatherDisplay:10.37,2013-05-18 04:47:00,
2013-05-17 22:52:00,62.4,32.1,29.83,East,101,2.3,2.3,32,0.00,-RA,OVC,0.00,WeatherDisplay:10.37,2013-05-18 04:52:00,
2013-05-17 22:57:00,62.2,32.0,29.83,East,101,0.0,0.3,32,0.00,-RA,OVC,0.00,WeatherDisplay:10.37,2013-05-18 04:57:00,
2013-05-17 23:02:00,62.1,28.6,29.83,East,101,2.3,0.0,28,0.00,-RA,OVC,0.00,WeatherDisplay:10.37,2013-05-18 05:02:00,
2013-05-17 23:07:00,62.3,31.3,29.83,East,101,0.0,0.0,31,0.00,-RA,OVC,0.00,WeatherDisplay:10.37,2013-05-18 05:07:00,
2013-05-17 23:12:00,62.2,31.2,29.83,East,101,0.0,0.3,31,0.00,-RA,OVC,0.00,WeatherDisplay:10.37,2013-05-18 05:12:00,
2013-05-17 23:17:00,62.0,31.8,29.83,East,101,0.0,0.0,32,0.00,-RA,OVC,0.00,WeatherDisplay:10.37,2013-05-18 05:17:00,
2013-05-17 23:22:00,61.8,30.0,29.83,East,101,0.0,0.0,30,0.00,-RA,OVC,0.00,WeatherDisplay:10.37,2013-05-18 05:22:00,
2013-05-17 23:27:00,61.8,29.2,29.83,East,101,1.1,0.0,29,0.00,-RA,OVC,0.00,WeatherDisplay:10.37,2013-05-18 05:27:00,
2013-05-17 23:32:00,61.8,28.3,29.83,East,101,0.0,0.0,28,0.00,-RA,OVC,0.00,WeatherDisplay:10.37,2013-05-18 05:32:00,
2013-05-17 23:37:00,61.9,30.1,29.83,East,101,0.0,0.0,30,0.00,-RA,OVC,0.00,WeatherDisplay:10.37,2013-05-18 05:37:00,
2013-05-17 23:42:00,61.6,32.9,29.83,East,101,2.3,0.0,34,0.00,-RA,OVC,0.00,WeatherDisplay:10.37,2013-05-18 05:42:00,
2013-05-17 23:47:00,61.1,33.2,29.83,East,101,0.0,0.1,35,0.00,-RA,OVC,0.00,WeatherDisplay:10.37,2013-05-18 05:47:00,
2013-05-17 23:52:00,60.7,29.9,29.83,East,101,0.0,0.0,31,0.00,-RA,OVC,0.00,WeatherDisplay:10.37,2013-05-18 05:52:00,
2013-05-17 23:57:00,60.8,29.9,29.83,East,98,0.0,0.0,31,0.00,-RA,OVC,0.00,WeatherDisplay:10.37,2013-05-18 05:57:00,